sensor_id;sensor_type;location;lat;lon;timestamp;P1;durP1;ratioP1;P2;durP2;ratioP2
33154;SDS011;19511;42.682;23.332;2023-05-10T00:01:28;12.63;;;5.80;;
33154;SDS011;19511;42.682;23.332;2023-05-10T00:03:53;13.57;;;6.13;;
33154;SDS011;19511;42.682;23.332;2023-05-10T00:06:19;13.77;;;6.53;;
33154;SDS011;19511;42.682;23.332;2023-05-10T00:08:45;11.70;;;6.78;;
33154;SDS011;19511;42.682;23.332;2023-05-10T00:11:10;11.20;;;5.72;;
33154;SDS011;19511;42.682;23.332;2023-05-10T00:13:36;11.13;;;5.50;;
33154;SDS011;19511;42.682;23.332;2023-05-10T00:16:01;11.65;;;6.32;;
33154;SDS011;19511;42.682;23.332;2023-05-10T00:18:26;15.10;;;6.18;;
33154;SDS011;19511;42.682;23.332;2023-05-10T00:20:52;17.88;;;8.43;;
33154;SDS011;19511;42.682;23.332;2023-05-10T00:23:17;15.82;;;8.05;;
33154;SDS011;19511;42.682;23.332;2023-05-10T00:25:43;15.38;;;7.65;;
33154;SDS011;19511;42.682;23.332;2023-05-10T00:28:08;17.73;;;8.13;;
33154;SDS011;19511;42.682;23.332;2023-05-10T00:30:33;18.92;;;8.45;;
33154;SDS011;19511;42.682;23.332;2023-05-10T00:32:59;14.85;;;8.85;;
33154;SDS011;19511;42.682;23.332;2023-05-10T00:35:25;14.30;;;8.80;;
33154;SDS011;19511;42.682;23.332;2023-05-10T00:37:51;14.57;;;7.72;;
33154;SDS011;19511;42.682;23.332;2023-05-10T00:40:16;13.88;;;7.78;;
33154;SDS011;19511;42.682;23.332;2023-05-10T00:42:46;20.48;;;8.68;;
33154;SDS011;19511;42.682;23.332;2023-05-10T00:45:11;20.45;;;9.30;;
33154;SDS011;19511;42.682;23.332;2023-05-10T00:47:37;15.45;;;8.40;;
33154;SDS011;19511;42.682;23.332;2023-05-10T00:50:02;19.60;;;9.75;;
33154;SDS011;19511;42.682;23.332;2023-05-10T00:52:30;19.88;;;9.45;;
33154;SDS011;19511;42.682;23.332;2023-05-10T00:54:55;19.38;;;9.52;;
33154;SDS011;19511;42.682;23.332;2023-05-10T00:57:22;19.98;;;9.30;;
33154;SDS011;19511;42.682;23.332;2023-05-10T00:59:47;19.77;;;9.63;;
33154;SDS011;19511;42.682;23.332;2023-05-10T01:02:13;18.85;;;9.63;;
33154;SDS011;19511;42.682;23.332;2023-05-10T01:04:39;18.85;;;8.80;;
33154;SDS011;19511;42.682;23.332;2023-05-10T01:07:05;15.20;;;8.70;;
33154;SDS011;19511;42.682;23.332;2023-05-10T01:09:31;19.50;;;9.75;;
33154;SDS011;19511;42.682;23.332;2023-05-10T01:11:57;15.88;;;8.73;;
33154;SDS011;19511;42.682;23.332;2023-05-10T01:14:23;17.92;;;9.85;;
33154;SDS011;19511;42.682;23.332;2023-05-10T01:16:53;21.10;;;9.40;;
33154;SDS011;19511;42.682;23.332;2023-05-10T01:19:20;18.13;;;9.23;;
33154;SDS011;19511;42.682;23.332;2023-05-10T01:22:04;19.08;;;9.57;;
33154;SDS011;19511;42.682;23.332;2023-05-10T01:24:44;17.67;;;9.25;;
33154;SDS011;19511;42.682;23.332;2023-05-10T01:27:17;20.67;;;9.68;;
33154;SDS011;19511;42.682;23.332;2023-05-10T01:32:29;21.85;;;9.55;;
33154;SDS011;19511;42.682;23.332;2023-05-10T01:35:03;14.75;;;8.90;;
33154;SDS011;19511;42.682;23.332;2023-05-10T01:42:49;13.82;;;7.70;;
33154;SDS011;19511;42.682;23.332;2023-05-10T01:45:20;14.23;;;7.50;;
33154;SDS011;19511;42.682;23.332;2023-05-10T01:48:06;12.70;;;6.85;;
33154;SDS011;19511;42.682;23.332;2023-05-10T01:50:35;14.68;;;7.55;;
33154;SDS011;19511;42.682;23.332;2023-05-10T01:53:02;13.60;;;6.72;;
33154;SDS011;19511;42.682;23.332;2023-05-10T01:55:32;14.23;;;7.18;;
33154;SDS011;19511;42.682;23.332;2023-05-10T01:58:11;12.55;;;6.72;;
33154;SDS011;19511;42.682;23.332;2023-05-10T02:00:43;11.70;;;6.68;;
33154;SDS011;19511;42.682;23.332;2023-05-10T02:03:11;12.80;;;7.30;;
33154;SDS011;19511;42.682;23.332;2023-05-10T02:05:37;11.05;;;6.68;;
33154;SDS011;19511;42.682;23.332;2023-05-10T02:08:06;15.80;;;7.20;;
33154;SDS011;19511;42.682;23.332;2023-05-10T02:10:34;11.00;;;6.18;;
33154;SDS011;19511;42.682;23.332;2023-05-10T02:13:00;16.00;;;6.55;;
33154;SDS011;19511;42.682;23.332;2023-05-10T02:15:27;11.30;;;6.07;;
33154;SDS011;19511;42.682;23.332;2023-05-10T02:17:55;11.90;;;6.43;;
33154;SDS011;19511;42.682;23.332;2023-05-10T02:20:21;11.65;;;5.43;;
33154;SDS011;19511;42.682;23.332;2023-05-10T02:22:52;9.30;;;5.75;;
33154;SDS011;19511;42.682;23.332;2023-05-10T02:25:21;10.52;;;6.18;;
33154;SDS011;19511;42.682;23.332;2023-05-10T02:27:48;11.48;;;5.45;;
33154;SDS011;19511;42.682;23.332;2023-05-10T02:30:15;8.68;;;5.38;;
33154;SDS011;19511;42.682;23.332;2023-05-10T02:32:43;8.93;;;5.50;;
33154;SDS011;19511;42.682;23.332;2023-05-10T02:35:10;11.23;;;6.00;;
33154;SDS011;19511;42.682;23.332;2023-05-10T02:37:36;9.38;;;5.20;;
33154;SDS011;19511;42.682;23.332;2023-05-10T02:40:03;9.57;;;4.78;;
33154;SDS011;19511;42.682;23.332;2023-05-10T02:42:32;8.27;;;4.80;;
33154;SDS011;19511;42.682;23.332;2023-05-10T02:45:00;10.07;;;5.13;;
33154;SDS011;19511;42.682;23.332;2023-05-10T02:47:28;6.72;;;3.90;;
33154;SDS011;19511;42.682;23.332;2023-05-10T02:49:54;5.60;;;3.83;;
33154;SDS011;19511;42.682;23.332;2023-05-10T02:52:24;8.75;;;4.55;;
33154;SDS011;19511;42.682;23.332;2023-05-10T02:54:54;10.55;;;4.63;;
33154;SDS011;19511;42.682;23.332;2023-05-10T02:57:27;13.13;;;4.97;;
33154;SDS011;19511;42.682;23.332;2023-05-10T03:00:00;8.25;;;4.60;;
33154;SDS011;19511;42.682;23.332;2023-05-10T03:02:26;7.68;;;4.35;;
33154;SDS011;19511;42.682;23.332;2023-05-10T03:04:55;7.22;;;4.30;;
33154;SDS011;19511;42.682;23.332;2023-05-10T03:07:21;11.13;;;4.78;;
33154;SDS011;19511;42.682;23.332;2023-05-10T03:09:48;7.07;;;4.18;;
33154;SDS011;19511;42.682;23.332;2023-05-10T03:17:47;11.20;;;5.47;;
33154;SDS011;19511;42.682;23.332;2023-05-10T03:20:24;7.43;;;4.55;;
33154;SDS011;19511;42.682;23.332;2023-05-10T03:23:02;8.63;;;4.32;;
33154;SDS011;19511;42.682;23.332;2023-05-10T03:25:31;7.70;;;3.85;;
33154;SDS011;19511;42.682;23.332;2023-05-10T03:27:57;11.50;;;5.15;;
33154;SDS011;19511;42.682;23.332;2023-05-10T03:30:24;20.23;;;5.65;;
33154;SDS011;19511;42.682;23.332;2023-05-10T03:32:50;12.45;;;5.05;;
33154;SDS011;19511;42.682;23.332;2023-05-10T03:35:15;12.57;;;5.18;;
33154;SDS011;19511;42.682;23.332;2023-05-10T03:37:41;7.55;;;4.50;;
33154;SDS011;19511;42.682;23.332;2023-05-10T03:40:07;8.88;;;4.97;;
33154;SDS011;19511;42.682;23.332;2023-05-10T03:42:33;8.88;;;4.68;;
33154;SDS011;19511;42.682;23.332;2023-05-10T03:44:58;7.93;;;4.75;;
33154;SDS011;19511;42.682;23.332;2023-05-10T03:47:24;9.07;;;5.10;;
33154;SDS011;19511;42.682;23.332;2023-05-10T03:49:50;10.18;;;5.55;;
33154;SDS011;19511;42.682;23.332;2023-05-10T03:52:15;13.23;;;5.30;;
33154;SDS011;19511;42.682;23.332;2023-05-10T03:54:40;13.82;;;4.72;;
33154;SDS011;19511;42.682;23.332;2023-05-10T03:57:06;12.40;;;5.57;;
33154;SDS011;19511;42.682;23.332;2023-05-10T03:59:32;10.00;;;4.70;;
33154;SDS011;19511;42.682;23.332;2023-05-10T04:01:57;10.63;;;5.82;;
33154;SDS011;19511;42.682;23.332;2023-05-10T04:04:22;11.45;;;4.68;;
33154;SDS011;19511;42.682;23.332;2023-05-10T04:06:48;9.25;;;4.15;;
33154;SDS011;19511;42.682;23.332;2023-05-10T04:09:13;7.25;;;3.88;;
33154;SDS011;19511;42.682;23.332;2023-05-10T04:11:43;9.95;;;5.20;;
33154;SDS011;19511;42.682;23.332;2023-05-10T04:14:09;10.63;;;4.90;;
33154;SDS011;19511;42.682;23.332;2023-05-10T04:16:35;16.17;;;5.47;;
33154;SDS011;19511;42.682;23.332;2023-05-10T04:19:03;9.18;;;4.72;;
33154;SDS011;19511;42.682;23.332;2023-05-10T04:21:29;8.80;;;4.68;;
33154;SDS011;19511;42.682;23.332;2023-05-10T04:23:55;11.20;;;6.00;;
33154;SDS011;19511;42.682;23.332;2023-05-10T04:26:24;11.55;;;5.40;;
33154;SDS011;19511;42.682;23.332;2023-05-10T04:28:53;10.77;;;5.82;;
33154;SDS011;19511;42.682;23.332;2023-05-10T04:31:18;8.43;;;5.28;;
33154;SDS011;19511;42.682;23.332;2023-05-10T04:33:44;11.38;;;5.68;;
33154;SDS011;19511;42.682;23.332;2023-05-10T04:36:09;6.32;;;4.15;;
33154;SDS011;19511;42.682;23.332;2023-05-10T04:38:35;8.23;;;4.40;;
33154;SDS011;19511;42.682;23.332;2023-05-10T04:41:05;12.18;;;5.75;;
33154;SDS011;19511;42.682;23.332;2023-05-10T04:43:34;9.88;;;5.80;;
33154;SDS011;19511;42.682;23.332;2023-05-10T04:46:00;11.38;;;6.35;;
33154;SDS011;19511;42.682;23.332;2023-05-10T04:48:26;10.27;;;5.60;;
33154;SDS011;19511;42.682;23.332;2023-05-10T04:50:52;12.27;;;5.88;;
33154;SDS011;19511;42.682;23.332;2023-05-10T04:53:22;10.38;;;5.82;;
33154;SDS011;19511;42.682;23.332;2023-05-10T04:55:50;7.78;;;5.05;;
33154;SDS011;19511;42.682;23.332;2023-05-10T04:58:16;12.73;;;5.03;;
33154;SDS011;19511;42.682;23.332;2023-05-10T05:00:41;8.88;;;5.05;;
33154;SDS011;19511;42.682;23.332;2023-05-10T05:03:13;12.10;;;5.03;;
33154;SDS011;19511;42.682;23.332;2023-05-10T05:05:39;13.27;;;6.15;;
33154;SDS011;19511;42.682;23.332;2023-05-10T05:08:05;11.65;;;5.45;;
33154;SDS011;19511;42.682;23.332;2023-05-10T05:10:31;9.82;;;5.82;;
33154;SDS011;19511;42.682;23.332;2023-05-10T05:12:57;12.48;;;5.40;;
33154;SDS011;19511;42.682;23.332;2023-05-10T05:15:22;10.10;;;5.68;;
33154;SDS011;19511;42.682;23.332;2023-05-10T05:17:47;10.07;;;5.35;;
33154;SDS011;19511;42.682;23.332;2023-05-10T05:20:13;13.32;;;4.93;;
33154;SDS011;19511;42.682;23.332;2023-05-10T05:22:39;9.20;;;5.68;;
33154;SDS011;19511;42.682;23.332;2023-05-10T05:25:08;12.20;;;6.25;;
33154;SDS011;19511;42.682;23.332;2023-05-10T05:27:36;14.35;;;6.05;;
33154;SDS011;19511;42.682;23.332;2023-05-10T05:30:02;13.35;;;5.65;;
33154;SDS011;19511;42.682;23.332;2023-05-10T05:32:28;18.13;;;6.15;;
33154;SDS011;19511;42.682;23.332;2023-05-10T05:34:53;13.27;;;6.43;;
33154;SDS011;19511;42.682;23.332;2023-05-10T05:37:19;12.15;;;6.30;;
33154;SDS011;19511;42.682;23.332;2023-05-10T05:39:46;10.95;;;6.22;;
33154;SDS011;19511;42.682;23.332;2023-05-10T05:42:12;19.73;;;6.35;;
33154;SDS011;19511;42.682;23.332;2023-05-10T05:44:38;13.20;;;6.60;;
33154;SDS011;19511;42.682;23.332;2023-05-10T05:47:08;12.68;;;7.15;;
33154;SDS011;19511;42.682;23.332;2023-05-10T05:49:34;16.42;;;6.50;;
33154;SDS011;19511;42.682;23.332;2023-05-10T05:52:00;13.73;;;6.70;;
33154;SDS011;19511;42.682;23.332;2023-05-10T05:54:26;11.88;;;5.90;;
33154;SDS011;19511;42.682;23.332;2023-05-10T05:56:55;12.15;;;6.75;;
33154;SDS011;19511;42.682;23.332;2023-05-10T05:59:21;14.73;;;6.90;;
33154;SDS011;19511;42.682;23.332;2023-05-10T06:01:47;13.57;;;6.10;;
33154;SDS011;19511;42.682;23.332;2023-05-10T06:04:12;12.30;;;5.50;;
33154;SDS011;19511;42.682;23.332;2023-05-10T06:06:39;10.88;;;6.40;;
33154;SDS011;19511;42.682;23.332;2023-05-10T06:09:04;17.05;;;8.02;;
33154;SDS011;19511;42.682;23.332;2023-05-10T06:11:30;14.38;;;7.07;;
33154;SDS011;19511;42.682;23.332;2023-05-10T06:13:59;15.07;;;6.78;;
33154;SDS011;19511;42.682;23.332;2023-05-10T06:16:25;18.63;;;7.15;;
33154;SDS011;19511;42.682;23.332;2023-05-10T06:18:51;12.40;;;6.57;;
33154;SDS011;19511;42.682;23.332;2023-05-10T06:21:16;15.15;;;6.85;;
33154;SDS011;19511;42.682;23.332;2023-05-10T06:23:41;10.38;;;6.93;;
33154;SDS011;19511;42.682;23.332;2023-05-10T06:26:07;12.15;;;6.53;;
33154;SDS011;19511;42.682;23.332;2023-05-10T06:28:32;13.38;;;6.45;;
33154;SDS011;19511;42.682;23.332;2023-05-10T06:30:58;15.30;;;7.20;;
33154;SDS011;19511;42.682;23.332;2023-05-10T06:33:24;13.88;;;7.20;;
33154;SDS011;19511;42.682;23.332;2023-05-10T06:35:49;13.93;;;7.55;;
33154;SDS011;19511;42.682;23.332;2023-05-10T06:38:15;15.65;;;6.82;;
33154;SDS011;19511;42.682;23.332;2023-05-10T06:40:41;12.10;;;6.35;;
33154;SDS011;19511;42.682;23.332;2023-05-10T06:43:07;10.48;;;6.15;;
33154;SDS011;19511;42.682;23.332;2023-05-10T06:45:33;14.07;;;7.10;;
33154;SDS011;19511;42.682;23.332;2023-05-10T06:47:58;8.63;;;5.18;;
33154;SDS011;19511;42.682;23.332;2023-05-10T06:50:24;16.55;;;5.85;;
33154;SDS011;19511;42.682;23.332;2023-05-10T06:52:49;21.23;;;7.03;;
33154;SDS011;19511;42.682;23.332;2023-05-10T06:55:14;12.25;;;6.05;;
33154;SDS011;19511;42.682;23.332;2023-05-10T06:57:40;9.13;;;4.90;;
33154;SDS011;19511;42.682;23.332;2023-05-10T07:00:06;8.50;;;5.45;;
33154;SDS011;19511;42.682;23.332;2023-05-10T07:02:36;9.57;;;5.30;;
33154;SDS011;19511;42.682;23.332;2023-05-10T07:05:01;13.65;;;5.53;;
33154;SDS011;19511;42.682;23.332;2023-05-10T07:07:27;12.43;;;5.82;;
33154;SDS011;19511;42.682;23.332;2023-05-10T07:09:53;12.65;;;6.35;;
33154;SDS011;19511;42.682;23.332;2023-05-10T07:12:19;18.33;;;6.45;;
33154;SDS011;19511;42.682;23.332;2023-05-10T07:14:44;11.48;;;6.68;;
33154;SDS011;19511;42.682;23.332;2023-05-10T07:17:10;14.98;;;5.30;;
33154;SDS011;19511;42.682;23.332;2023-05-10T07:19:36;10.70;;;5.82;;
33154;SDS011;19511;42.682;23.332;2023-05-10T07:22:01;13.80;;;5.50;;
33154;SDS011;19511;42.682;23.332;2023-05-10T07:24:31;10.85;;;5.75;;
33154;SDS011;19511;42.682;23.332;2023-05-10T07:26:58;11.13;;;6.68;;
33154;SDS011;19511;42.682;23.332;2023-05-10T07:29:23;10.13;;;5.80;;
33154;SDS011;19511;42.682;23.332;2023-05-10T07:31:48;11.35;;;6.55;;
33154;SDS011;19511;42.682;23.332;2023-05-10T07:34:14;10.75;;;6.07;;
33154;SDS011;19511;42.682;23.332;2023-05-10T07:36:39;8.60;;;5.78;;
33154;SDS011;19511;42.682;23.332;2023-05-10T07:39:05;18.48;;;6.55;;
33154;SDS011;19511;42.682;23.332;2023-05-10T07:41:30;11.30;;;6.35;;
33154;SDS011;19511;42.682;23.332;2023-05-10T07:43:56;11.02;;;6.32;;
33154;SDS011;19511;42.682;23.332;2023-05-10T07:46:21;11.57;;;5.93;;
33154;SDS011;19511;42.682;23.332;2023-05-10T07:48:47;14.45;;;7.43;;
33154;SDS011;19511;42.682;23.332;2023-05-10T07:51:12;13.43;;;6.32;;
33154;SDS011;19511;42.682;23.332;2023-05-10T07:53:37;10.90;;;6.18;;
33154;SDS011;19511;42.682;23.332;2023-05-10T07:56:25;12.80;;;7.70;;
33154;SDS011;19511;42.682;23.332;2023-05-10T07:58:51;16.25;;;8.32;;
33154;SDS011;19511;42.682;23.332;2023-05-10T08:01:17;17.27;;;7.65;;
33154;SDS011;19511;42.682;23.332;2023-05-10T08:03:42;15.32;;;6.95;;
33154;SDS011;19511;42.682;23.332;2023-05-10T08:06:08;15.70;;;7.78;;
33154;SDS011;19511;42.682;23.332;2023-05-10T08:08:33;15.02;;;7.22;;
33154;SDS011;19511;42.682;23.332;2023-05-10T08:10:59;12.90;;;6.90;;
33154;SDS011;19511;42.682;23.332;2023-05-10T08:13:24;11.40;;;6.13;;
33154;SDS011;19511;42.682;23.332;2023-05-10T08:15:50;10.80;;;6.60;;
33154;SDS011;19511;42.682;23.332;2023-05-10T08:18:18;14.93;;;7.38;;
33154;SDS011;19511;42.682;23.332;2023-05-10T08:20:43;12.55;;;6.20;;
33154;SDS011;19511;42.682;23.332;2023-05-10T08:23:09;12.43;;;6.00;;
33154;SDS011;19511;42.682;23.332;2023-05-10T08:25:34;13.15;;;6.95;;
33154;SDS011;19511;42.682;23.332;2023-05-10T08:28:00;10.38;;;5.63;;
33154;SDS011;19511;42.682;23.332;2023-05-10T08:30:25;14.75;;;8.15;;
33154;SDS011;19511;42.682;23.332;2023-05-10T08:32:51;11.82;;;6.68;;
33154;SDS011;19511;42.682;23.332;2023-05-10T08:35:17;8.35;;;5.53;;
33154;SDS011;19511;42.682;23.332;2023-05-10T08:37:43;12.60;;;6.38;;
33154;SDS011;19511;42.682;23.332;2023-05-10T08:40:09;9.68;;;5.50;;
33154;SDS011;19511;42.682;23.332;2023-05-10T08:42:36;16.00;;;6.30;;
33154;SDS011;19511;42.682;23.332;2023-05-10T08:45:09;12.55;;;5.82;;
33154;SDS011;19511;42.682;23.332;2023-05-10T08:47:36;21.23;;;7.50;;
33154;SDS011;19511;42.682;23.332;2023-05-10T08:50:03;15.60;;;7.22;;
33154;SDS011;19511;42.682;23.332;2023-05-10T08:52:29;15.88;;;7.07;;
33154;SDS011;19511;42.682;23.332;2023-05-10T08:54:56;23.65;;;7.15;;
33154;SDS011;19511;42.682;23.332;2023-05-10T08:57:22;13.15;;;7.18;;
33154;SDS011;19511;42.682;23.332;2023-05-10T08:59:47;10.82;;;6.80;;
33154;SDS011;19511;42.682;23.332;2023-05-10T09:02:13;12.45;;;6.80;;
33154;SDS011;19511;42.682;23.332;2023-05-10T09:04:39;12.73;;;7.40;;
33154;SDS011;19511;42.682;23.332;2023-05-10T09:07:06;12.00;;;6.93;;
33154;SDS011;19511;42.682;23.332;2023-05-10T09:09:32;13.80;;;7.82;;
33154;SDS011;19511;42.682;23.332;2023-05-10T09:11:58;12.98;;;7.32;;
33154;SDS011;19511;42.682;23.332;2023-05-10T09:14:24;19.48;;;7.13;;
33154;SDS011;19511;42.682;23.332;2023-05-10T09:16:50;19.17;;;7.80;;
33154;SDS011;19511;42.682;23.332;2023-05-10T09:19:16;15.23;;;7.43;;
33154;SDS011;19511;42.682;23.332;2023-05-10T09:21:42;12.93;;;7.35;;
33154;SDS011;19511;42.682;23.332;2023-05-10T09:24:08;16.15;;;8.15;;
33154;SDS011;19511;42.682;23.332;2023-05-10T09:26:34;11.80;;;6.40;;
33154;SDS011;19511;42.682;23.332;2023-05-10T09:29:20;12.10;;;7.07;;
33154;SDS011;19511;42.682;23.332;2023-05-10T09:31:49;12.80;;;6.63;;
33154;SDS011;19511;42.682;23.332;2023-05-10T09:34:17;11.80;;;6.72;;
33154;SDS011;19511;42.682;23.332;2023-05-10T09:36:57;12.52;;;7.22;;
33154;SDS011;19511;42.682;23.332;2023-05-10T09:39:34;18.25;;;7.15;;
33154;SDS011;19511;42.682;23.332;2023-05-10T09:44:34;15.65;;;8.25;;
33154;SDS011;19511;42.682;23.332;2023-05-10T09:47:01;15.43;;;8.13;;
33154;SDS011;19511;42.682;23.332;2023-05-10T09:49:27;12.85;;;6.95;;
33154;SDS011;19511;42.682;23.332;2023-05-10T09:52:26;18.35;;;8.40;;
33154;SDS011;19511;42.682;23.332;2023-05-10T09:54:52;14.88;;;6.72;;
33154;SDS011;19511;42.682;23.332;2023-05-10T09:57:20;11.85;;;6.75;;
33154;SDS011;19511;42.682;23.332;2023-05-10T09:59:47;17.50;;;7.13;;
33154;SDS011;19511;42.682;23.332;2023-05-10T10:02:16;10.25;;;6.25;;
33154;SDS011;19511;42.682;23.332;2023-05-10T10:04:42;13.70;;;7.05;;
33154;SDS011;19511;42.682;23.332;2023-05-10T10:07:08;16.05;;;7.95;;
33154;SDS011;19511;42.682;23.332;2023-05-10T10:09:34;18.63;;;8.35;;
33154;SDS011;19511;42.682;23.332;2023-05-10T10:12:00;11.13;;;6.65;;
33154;SDS011;19511;42.682;23.332;2023-05-10T10:14:29;15.45;;;6.80;;
33154;SDS011;19511;42.682;23.332;2023-05-10T10:16:55;13.68;;;7.18;;
33154;SDS011;19511;42.682;23.332;2023-05-10T10:19:25;17.02;;;7.35;;
33154;SDS011;19511;42.682;23.332;2023-05-10T10:21:55;24.35;;;7.55;;
33154;SDS011;19511;42.682;23.332;2023-05-10T10:24:21;12.93;;;7.32;;
33154;SDS011;19511;42.682;23.332;2023-05-10T10:26:46;12.50;;;6.50;;
33154;SDS011;19511;42.682;23.332;2023-05-10T10:29:21;12.35;;;7.10;;
33154;SDS011;19511;42.682;23.332;2023-05-10T10:32:09;14.45;;;7.13;;
33154;SDS011;19511;42.682;23.332;2023-05-10T10:34:45;22.35;;;7.78;;
33154;SDS011;19511;42.682;23.332;2023-05-10T10:37:11;12.40;;;6.68;;
33154;SDS011;19511;42.682;23.332;2023-05-10T10:39:38;9.98;;;6.43;;
33154;SDS011;19511;42.682;23.332;2023-05-10T10:42:04;9.13;;;5.65;;
33154;SDS011;19511;42.682;23.332;2023-05-10T10:47:21;9.20;;;5.55;;
33154;SDS011;19511;42.682;23.332;2023-05-10T10:55:31;8.18;;;4.80;;
33154;SDS011;19511;42.682;23.332;2023-05-10T10:57:57;10.13;;;5.38;;
33154;SDS011;19511;42.682;23.332;2023-05-10T11:00:29;7.53;;;4.72;;
33154;SDS011;19511;42.682;23.332;2023-05-10T11:08:06;10.15;;;5.07;;
33154;SDS011;19511;42.682;23.332;2023-05-10T11:15:55;8.55;;;4.57;;
33154;SDS011;19511;42.682;23.332;2023-05-10T11:18:35;9.05;;;5.25;;
33154;SDS011;19511;42.682;23.332;2023-05-10T11:21:02;9.55;;;4.63;;
33154;SDS011;19511;42.682;23.332;2023-05-10T11:23:47;7.57;;;5.05;;
33154;SDS011;19511;42.682;23.332;2023-05-10T11:26:20;8.20;;;4.55;;
33154;SDS011;19511;42.682;23.332;2023-05-10T11:28:50;11.20;;;5.15;;
33154;SDS011;19511;42.682;23.332;2023-05-10T11:31:18;8.52;;;4.68;;
33154;SDS011;19511;42.682;23.332;2023-05-10T11:33:44;11.50;;;4.75;;
33154;SDS011;19511;42.682;23.332;2023-05-10T11:36:19;9.05;;;5.15;;
33154;SDS011;19511;42.682;23.332;2023-05-10T11:38:50;13.43;;;4.47;;
33154;SDS011;19511;42.682;23.332;2023-05-10T11:41:16;12.35;;;4.78;;
33154;SDS011;19511;42.682;23.332;2023-05-10T11:43:44;7.40;;;4.60;;
33154;SDS011;19511;42.682;23.332;2023-05-10T11:46:13;11.45;;;5.00;;
33154;SDS011;19511;42.682;23.332;2023-05-10T11:48:39;11.93;;;4.78;;
33154;SDS011;19511;42.682;23.332;2023-05-10T11:51:10;10.13;;;4.90;;
33154;SDS011;19511;42.682;23.332;2023-05-10T11:53:35;14.88;;;5.03;;
33154;SDS011;19511;42.682;23.332;2023-05-10T11:56:08;9.48;;;5.60;;
33154;SDS011;19511;42.682;23.332;2023-05-10T11:58:39;7.57;;;4.63;;
33154;SDS011;19511;42.682;23.332;2023-05-10T12:01:05;8.40;;;5.32;;
33154;SDS011;19511;42.682;23.332;2023-05-10T12:03:34;8.50;;;4.90;;
33154;SDS011;19511;42.682;23.332;2023-05-10T12:06:00;8.80;;;5.07;;
33154;SDS011;19511;42.682;23.332;2023-05-10T12:08:26;8.95;;;5.38;;
33154;SDS011;19511;42.682;23.332;2023-05-10T12:10:54;9.77;;;5.03;;
33154;SDS011;19511;42.682;23.332;2023-05-10T12:13:30;10.13;;;5.25;;
33154;SDS011;19511;42.682;23.332;2023-05-10T12:15:58;11.20;;;5.65;;
33154;SDS011;19511;42.682;23.332;2023-05-10T12:18:28;10.02;;;5.55;;
33154;SDS011;19511;42.682;23.332;2023-05-10T12:20:54;17.75;;;6.20;;
33154;SDS011;19511;42.682;23.332;2023-05-10T12:23:20;7.88;;;4.90;;
33154;SDS011;19511;42.682;23.332;2023-05-10T12:25:46;12.73;;;6.15;;
33154;SDS011;19511;42.682;23.332;2023-05-10T12:28:14;9.23;;;5.35;;
33154;SDS011;19511;42.682;23.332;2023-05-10T12:30:40;11.82;;;5.82;;
33154;SDS011;19511;42.682;23.332;2023-05-10T12:33:11;12.25;;;6.03;;
33154;SDS011;19511;42.682;23.332;2023-05-10T12:35:49;14.80;;;5.93;;
33154;SDS011;19511;42.682;23.332;2023-05-10T12:38:32;9.40;;;5.45;;
33154;SDS011;19511;42.682;23.332;2023-05-10T12:41:17;8.15;;;5.00;;
33154;SDS011;19511;42.682;23.332;2023-05-10T12:43:43;10.23;;;5.18;;
33154;SDS011;19511;42.682;23.332;2023-05-10T12:46:14;11.48;;;5.38;;
33154;SDS011;19511;42.682;23.332;2023-05-10T12:48:40;9.27;;;5.15;;
33154;SDS011;19511;42.682;23.332;2023-05-10T12:51:07;10.10;;;4.75;;
33154;SDS011;19511;42.682;23.332;2023-05-10T12:53:42;9.23;;;4.72;;
33154;SDS011;19511;42.682;23.332;2023-05-10T12:56:07;14.63;;;5.03;;
33154;SDS011;19511;42.682;23.332;2023-05-10T12:58:34;8.70;;;5.18;;
33154;SDS011;19511;42.682;23.332;2023-05-10T13:01:00;9.80;;;5.22;;
33154;SDS011;19511;42.682;23.332;2023-05-10T13:03:27;8.45;;;4.85;;
33154;SDS011;19511;42.682;23.332;2023-05-10T13:05:52;9.90;;;5.75;;
33154;SDS011;19511;42.682;23.332;2023-05-10T13:08:17;8.23;;;4.20;;
33154;SDS011;19511;42.682;23.332;2023-05-10T13:10:43;10.80;;;4.43;;
33154;SDS011;19511;42.682;23.332;2023-05-10T13:13:08;7.88;;;4.28;;
33154;SDS011;19511;42.682;23.332;2023-05-10T13:15:38;11.75;;;5.15;;
33154;SDS011;19511;42.682;23.332;2023-05-10T13:18:04;9.85;;;5.32;;
33154;SDS011;19511;42.682;23.332;2023-05-10T13:20:29;7.70;;;4.97;;
33154;SDS011;19511;42.682;23.332;2023-05-10T13:22:54;15.10;;;6.00;;
33154;SDS011;19511;42.682;23.332;2023-05-10T13:25:26;7.85;;;4.53;;
33154;SDS011;19511;42.682;23.332;2023-05-10T13:27:52;8.35;;;4.72;;
33154;SDS011;19511;42.682;23.332;2023-05-10T13:30:17;9.95;;;5.60;;
33154;SDS011;19511;42.682;23.332;2023-05-10T13:32:43;7.97;;;4.10;;
33154;SDS011;19511;42.682;23.332;2023-05-10T13:35:08;10.18;;;4.55;;
33154;SDS011;19511;42.682;23.332;2023-05-10T13:37:33;9.27;;;5.10;;
33154;SDS011;19511;42.682;23.332;2023-05-10T13:40:02;11.05;;;5.82;;
33154;SDS011;19511;42.682;23.332;2023-05-10T13:42:29;12.30;;;6.05;;
33154;SDS011;19511;42.682;23.332;2023-05-10T13:44:56;6.00;;;4.15;;
33154;SDS011;19511;42.682;23.332;2023-05-10T13:47:22;7.10;;;4.63;;
33154;SDS011;19511;42.682;23.332;2023-05-10T13:49:47;7.97;;;4.60;;
33154;SDS011;19511;42.682;23.332;2023-05-10T13:52:13;9.52;;;3.97;;
33154;SDS011;19511;42.682;23.332;2023-05-10T13:54:40;20.80;;;5.25;;
33154;SDS011;19511;42.682;23.332;2023-05-10T13:57:06;13.80;;;4.88;;
33154;SDS011;19511;42.682;23.332;2023-05-10T13:59:34;14.45;;;4.70;;
33154;SDS011;19511;42.682;23.332;2023-05-10T14:02:00;13.68;;;4.75;;
33154;SDS011;19511;42.682;23.332;2023-05-10T14:04:29;8.85;;;4.85;;
33154;SDS011;19511;42.682;23.332;2023-05-10T14:06:56;6.57;;;4.38;;
33154;SDS011;19511;42.682;23.332;2023-05-10T14:09:22;9.18;;;5.50;;
33154;SDS011;19511;42.682;23.332;2023-05-10T14:11:47;12.35;;;4.75;;
33154;SDS011;19511;42.682;23.332;2023-05-10T14:14:13;6.45;;;4.20;;
33154;SDS011;19511;42.682;23.332;2023-05-10T14:16:42;9.38;;;4.45;;
33154;SDS011;19511;42.682;23.332;2023-05-10T14:19:09;8.80;;;4.90;;
33154;SDS011;19511;42.682;23.332;2023-05-10T14:21:35;8.43;;;4.82;;
33154;SDS011;19511;42.682;23.332;2023-05-10T14:24:00;9.13;;;4.95;;
33154;SDS011;19511;42.682;23.332;2023-05-10T14:26:25;8.27;;;4.80;;
33154;SDS011;19511;42.682;23.332;2023-05-10T14:28:51;7.75;;;4.63;;
33154;SDS011;19511;42.682;23.332;2023-05-10T14:31:22;10.45;;;5.65;;
33154;SDS011;19511;42.682;23.332;2023-05-10T14:33:57;8.90;;;5.00;;
33154;SDS011;19511;42.682;23.332;2023-05-10T14:36:27;9.82;;;4.72;;
33154;SDS011;19511;42.682;23.332;2023-05-10T14:38:54;11.13;;;4.88;;
33154;SDS011;19511;42.682;23.332;2023-05-10T14:41:19;7.57;;;4.85;;
33154;SDS011;19511;42.682;23.332;2023-05-10T14:43:44;9.38;;;5.13;;
33154;SDS011;19511;42.682;23.332;2023-05-10T14:46:10;7.18;;;4.43;;
33154;SDS011;19511;42.682;23.332;2023-05-10T14:48:36;11.20;;;5.20;;
33154;SDS011;19511;42.682;23.332;2023-05-10T14:51:04;10.23;;;5.80;;
33154;SDS011;19511;42.682;23.332;2023-05-10T14:53:35;14.45;;;5.35;;
33154;SDS011;19511;42.682;23.332;2023-05-10T14:56:05;14.40;;;4.57;;
33154;SDS011;19511;42.682;23.332;2023-05-10T14:58:31;9.38;;;4.70;;
33154;SDS011;19511;42.682;23.332;2023-05-10T15:00:56;8.10;;;4.40;;
33154;SDS011;19511;42.682;23.332;2023-05-10T15:03:22;12.65;;;4.88;;